sensor_id;sensor_type;location;lat;lon;timestamp;temperature;humidity
3678;DHT22;1855;50.934;6.958;2022-11-25T00:00:06;7.70;92.70
3678;DHT22;1855;50.934;6.958;2022-11-25T00:02:35;7.70;92.70
3678;DHT22;1855;50.934;6.958;2022-11-25T00:05:02;7.70;92.90
3678;DHT22;1855;50.934;6.958;2022-11-25T00:07:29;7.70;92.80
3678;DHT22;1855;50.934;6.958;2022-11-25T00:09:55;7.60;92.90
3678;DHT22;1855;50.934;6.958;2022-11-25T00:12:22;7.60;93.10
3678;DHT22;1855;50.934;6.958;2022-11-25T00:14:49;7.60;93.10
3678;DHT22;1855;50.934;6.958;2022-11-25T00:17:15;7.50;93.10
3678;DHT22;1855;50.934;6.958;2022-11-25T00:19:43;7.50;93.30
3678;DHT22;1855;50.934;6.958;2022-11-25T00:22:13;7.50;93.40
3678;DHT22;1855;50.934;6.958;2022-11-25T00:24:40;7.40;93.60
3678;DHT22;1855;50.934;6.958;2022-11-25T00:27:07;7.40;93.80
3678;DHT22;1855;50.934;6.958;2022-11-25T00:29:34;7.30;93.90
3678;DHT22;1855;50.934;6.958;2022-11-25T00:32:00;7.30;94.00
3678;DHT22;1855;50.934;6.958;2022-11-25T00:34:27;7.30;94.10
3678;DHT22;1855;50.934;6.958;2022-11-25T00:36:55;7.20;94.20
3678;DHT22;1855;50.934;6.958;2022-11-25T00:39:22;7.20;94.40
3678;DHT22;1855;50.934;6.958;2022-11-25T00:41:51;7.20;94.60
3678;DHT22;1855;50.934;6.958;2022-11-25T00:44:35;7.30;94.50
3678;DHT22;1855;50.934;6.958;2022-11-25T00:47:04;7.30;94.60
3678;DHT22;1855;50.934;6.958;2022-11-25T00:49:32;7.20;94.60
3678;DHT22;1855;50.934;6.958;2022-11-25T00:52:00;7.30;94.80
3678;DHT22;1855;50.934;6.958;2022-11-25T00:54:27;7.30;94.80
3678;DHT22;1855;50.934;6.958;2022-11-25T00:56:54;7.30;94.80
3678;DHT22;1855;50.934;6.958;2022-11-25T00:59:20;7.30;94.90
3678;DHT22;1855;50.934;6.958;2022-11-25T01:01:47;7.30;94.90
3678;DHT22;1855;50.934;6.958;2022-11-25T01:04:14;7.40;94.90
3678;DHT22;1855;50.934;6.958;2022-11-25T01:06:41;7.40;94.90
3678;DHT22;1855;50.934;6.958;2022-11-25T01:09:11;7.40;95.00
3678;DHT22;1855;50.934;6.958;2022-11-25T01:11:38;7.50;94.90
3678;DHT22;1855;50.934;6.958;2022-11-25T01:14:05;7.50;94.70
3678;DHT22;1855;50.934;6.958;2022-11-25T01:16:33;7.60;94.50
3678;DHT22;1855;50.934;6.958;2022-11-25T01:19:00;7.70;94.40
3678;DHT22;1855;50.934;6.958;2022-11-25T01:21:29;7.70;94.50
3678;DHT22;1855;50.934;6.958;2022-11-25T01:23:58;7.70;94.50
3678;DHT22;1855;50.934;6.958;2022-11-25T01:26:27;7.70;94.40
3678;DHT22;1855;50.934;6.958;2022-11-25T01:28:56;7.70;94.50
3678;DHT22;1855;50.934;6.958;2022-11-25T01:31:25;7.70;94.50
3678;DHT22;1855;50.934;6.958;2022-11-25T01:33:53;7.70;94.70
3678;DHT22;1855;50.934;6.958;2022-11-25T01:36:21;7.70;94.70
3678;DHT22;1855;50.934;6.958;2022-11-25T01:38:49;7.70;94.70
3678;DHT22;1855;50.934;6.958;2022-11-25T01:41:16;7.70;94.70
3678;DHT22;1855;50.934;6.958;2022-11-25T01:47:05;7.70;94.90
3678;DHT22;1855;50.934;6.958;2022-11-25T01:49:40;7.70;95.00
3678;DHT22;1855;50.934;6.958;2022-11-25T01:52:13;7.60;95.00
3678;DHT22;1855;50.934;6.958;2022-11-25T01:54:47;7.60;95.10
3678;DHT22;1855;50.934;6.958;2022-11-25T01:57:18;7.70;95.10
3678;DHT22;1855;50.934;6.958;2022-11-25T01:59:49;7.70;95.10
3678;DHT22;1855;50.934;6.958;2022-11-25T02:02:19;7.70;95.20
3678;DHT22;1855;50.934;6.958;2022-11-25T02:04:47;7.70;95.30
3678;DHT22;1855;50.934;6.958;2022-11-25T02:07:18;7.70;95.30
3678;DHT22;1855;50.934;6.958;2022-11-25T02:09:47;7.70;95.30
3678;DHT22;1855;50.934;6.958;2022-11-25T02:12:17;7.80;95.30
3678;DHT22;1855;50.934;6.958;2022-11-25T02:14:44;7.80;95.30
3678;DHT22;1855;50.934;6.958;2022-11-25T02:17:12;7.80;95.40
3678;DHT22;1855;50.934;6.958;2022-11-25T02:19:49;7.80;95.30
3678;DHT22;1855;50.934;6.958;2022-11-25T02:22:25;7.90;95.20
3678;DHT22;1855;50.934;6.958;2022-11-25T02:24:57;7.90;95.20
3678;DHT22;1855;50.934;6.958;2022-11-25T02:27:27;7.90;95.40
3678;DHT22;1855;50.934;6.958;2022-11-25T02:29:54;7.90;95.30
3678;DHT22;1855;50.934;6.958;2022-11-25T02:32:21;7.90;95.20
3678;DHT22;1855;50.934;6.958;2022-11-25T02:34:48;8.00;95.10
3678;DHT22;1855;50.934;6.958;2022-11-25T02:37:17;8.00;95.10
3678;DHT22;1855;50.934;6.958;2022-11-25T02:39:46;8.10;95.10
3678;DHT22;1855;50.934;6.958;2022-11-25T02:42:14;8.10;95.10
3678;DHT22;1855;50.934;6.958;2022-11-25T02:44:43;8.10;95.10
3678;DHT22;1855;50.934;6.958;2022-11-25T02:47:10;8.10;94.90
3678;DHT22;1855;50.934;6.958;2022-11-25T02:49:37;8.10;95.00
3678;DHT22;1855;50.934;6.958;2022-11-25T02:52:04;8.10;95.00
3678;DHT22;1855;50.934;6.958;2022-11-25T02:54:30;8.10;95.00
3678;DHT22;1855;50.934;6.958;2022-11-25T02:56:57;8.10;95.10
3678;DHT22;1855;50.934;6.958;2022-11-25T02:59:24;8.10;95.10
3678;DHT22;1855;50.934;6.958;2022-11-25T03:01:52;8.10;95.30
3678;DHT22;1855;50.934;6.958;2022-11-25T03:04:19;8.10;95.80
3678;DHT22;1855;50.934;6.958;2022-11-25T03:06:45;8.20;95.20
3678;DHT22;1855;50.934;6.958;2022-11-25T03:09:12;8.20;95.20
3678;DHT22;1855;50.934;6.958;2022-11-25T03:11:39;8.20;95.10
3678;DHT22;1855;50.934;6.958;2022-11-25T03:14:23;8.20;95.10
3678;DHT22;1855;50.934;6.958;2022-11-25T03:16:51;8.20;95.10
3678;DHT22;1855;50.934;6.958;2022-11-25T03:19:18;8.20;95.10
3678;DHT22;1855;50.934;6.958;2022-11-25T03:21:45;8.20;95.30
3678;DHT22;1855;50.934;6.958;2022-11-25T03:24:11;8.30;95.30
3678;DHT22;1855;50.934;6.958;2022-11-25T03:26:38;8.30;95.20
3678;DHT22;1855;50.934;6.958;2022-11-25T03:29:05;8.40;95.10
3678;DHT22;1855;50.934;6.958;2022-11-25T03:31:32;8.40;94.90
3678;DHT22;1855;50.934;6.958;2022-11-25T03:34:00;8.50;94.70
3678;DHT22;1855;50.934;6.958;2022-11-25T03:36:26;8.50;94.70
3678;DHT22;1855;50.934;6.958;2022-11-25T03:38:53;8.60;94.50
3678;DHT22;1855;50.934;6.958;2022-11-25T03:41:20;8.60;94.40
3678;DHT22;1855;50.934;6.958;2022-11-25T03:43:47;8.70;94.10
3678;DHT22;1855;50.934;6.958;2022-11-25T03:46:13;8.80;94.00
3678;DHT22;1855;50.934;6.958;2022-11-25T03:48:40;8.80;94.00
3678;DHT22;1855;50.934;6.958;2022-11-25T03:51:08;8.80;93.90
3678;DHT22;1855;50.934;6.958;2022-11-25T03:53:35;8.80;93.80
3678;DHT22;1855;50.934;6.958;2022-11-25T03:56:02;8.80;93.70
3678;DHT22;1855;50.934;6.958;2022-11-25T03:58:29;8.80;93.80
3678;DHT22;1855;50.934;6.958;2022-11-25T04:00:58;8.80;93.60
3678;DHT22;1855;50.934;6.958;2022-11-25T04:03:25;8.90;93.50
3678;DHT22;1855;50.934;6.958;2022-11-25T04:05:52;8.90;93.60
3678;DHT22;1855;50.934;6.958;2022-11-25T04:08:20;8.90;93.50
3678;DHT22;1855;50.934;6.958;2022-11-25T04:10:48;8.90;93.50
3678;DHT22;1855;50.934;6.958;2022-11-25T04:13:15;8.80;93.60
3678;DHT22;1855;50.934;6.958;2022-11-25T04:15:43;8.80;93.80
3678;DHT22;1855;50.934;6.958;2022-11-25T04:18:10;8.80;94.00
3678;DHT22;1855;50.934;6.958;2022-11-25T04:20:37;8.80;93.90
3678;DHT22;1855;50.934;6.958;2022-11-25T04:23:04;8.80;94.10
3678;DHT22;1855;50.934;6.958;2022-11-25T04:25:33;8.70;94.10
3678;DHT22;1855;50.934;6.958;2022-11-25T04:27:59;8.70;94.30
3678;DHT22;1855;50.934;6.958;2022-11-25T04:30:26;8.70;94.30
3678;DHT22;1855;50.934;6.958;2022-11-25T04:32:53;8.70;94.40
3678;DHT22;1855;50.934;6.958;2022-11-25T04:35:20;8.70;94.60
3678;DHT22;1855;50.934;6.958;2022-11-25T04:37:47;8.60;94.60
3678;DHT22;1855;50.934;6.958;2022-11-25T04:40:14;8.70;94.60
3678;DHT22;1855;50.934;6.958;2022-11-25T04:42:42;8.70;94.90
3678;DHT22;1855;50.934;6.958;2022-11-25T04:45:11;8.60;95.10
3678;DHT22;1855;50.934;6.958;2022-11-25T04:47:40;8.60;95.60
3678;DHT22;1855;50.934;6.958;2022-11-25T04:50:11;8.60;95.90
3678;DHT22;1855;50.934;6.958;2022-11-25T04:52:38;8.50;96.20
3678;DHT22;1855;50.934;6.958;2022-11-25T04:55:06;8.50;96.40
3678;DHT22;1855;50.934;6.958;2022-11-25T04:57:32;8.40;96.80
3678;DHT22;1855;50.934;6.958;2022-11-25T05:00:01;8.40;97.00
3678;DHT22;1855;50.934;6.958;2022-11-25T05:02:27;8.30;97.10
3678;DHT22;1855;50.934;6.958;2022-11-25T05:04:55;8.20;97.50
3678;DHT22;1855;50.934;6.958;2022-11-25T05:07:24;8.20;97.80
3678;DHT22;1855;50.934;6.958;2022-11-25T05:09:51;8.20;98.20
3678;DHT22;1855;50.934;6.958;2022-11-25T05:12:20;8.20;98.30
3678;DHT22;1855;50.934;6.958;2022-11-25T05:14:47;8.20;98.50
3678;DHT22;1855;50.934;6.958;2022-11-25T05:17:17;8.20;98.60
3678;DHT22;1855;50.934;6.958;2022-11-25T05:19:44;8.20;98.70
3678;DHT22;1855;50.934;6.958;2022-11-25T05:22:12;8.20;98.90
3678;DHT22;1855;50.934;6.958;2022-11-25T05:24:39;8.20;99.10
3678;DHT22;1855;50.934;6.958;2022-11-25T05:27:06;8.10;99.20
3678;DHT22;1855;50.934;6.958;2022-11-25T05:29:33;8.10;99.60
3678;DHT22;1855;50.934;6.958;2022-11-25T05:31:59;8.00;99.80
3678;DHT22;1855;50.934;6.958;2022-11-25T05:34:28;8.00;99.90
3678;DHT22;1855;50.934;6.958;2022-11-25T05:36:55;8.00;99.90
3678;DHT22;1855;50.934;6.958;2022-11-25T05:39:21;8.00;99.90
3678;DHT22;1855;50.934;6.958;2022-11-25T05:41:48;8.00;99.90
3678;DHT22;1855;50.934;6.958;2022-11-25T05:44:15;7.90;99.90
3678;DHT22;1855;50.934;6.958;2022-11-25T05:46:43;7.90;99.90
3678;DHT22;1855;50.934;6.958;2022-11-25T05:49:11;7.90;99.90
3678;DHT22;1855;50.934;6.958;2022-11-25T05:51:39;7.90;99.90
3678;DHT22;1855;50.934;6.958;2022-11-25T05:54:06;7.90;99.90
3678;DHT22;1855;50.934;6.958;2022-11-25T05:56:33;7.90;99.90
3678;DHT22;1855;50.934;6.958;2022-11-25T05:59:02;7.80;99.90
3678;DHT22;1855;50.934;6.958;2022-11-25T06:01:29;7.80;99.90
3678;DHT22;1855;50.934;6.958;2022-11-25T06:03:59;7.80;99.90
3678;DHT22;1855;50.934;6.958;2022-11-25T06:06:26;7.80;99.90
3678;DHT22;1855;50.934;6.958;2022-11-25T06:08:54;7.80;99.90
3678;DHT22;1855;50.934;6.958;2022-11-25T06:11:21;7.70;99.90
3678;DHT22;1855;50.934;6.958;2022-11-25T06:13:49;7.70;99.90
3678;DHT22;1855;50.934;6.958;2022-11-25T06:16:18;7.70;99.90
3678;DHT22;1855;50.934;6.958;2022-11-25T06:18:45;7.70;99.90
3678;DHT22;1855;50.934;6.958;2022-11-25T06:21:12;7.70;99.90
3678;DHT22;1855;50.934;6.958;2022-11-25T06:23:39;7.70;99.90
3678;DHT22;1855;50.934;6.958;2022-11-25T06:26:10;7.70;99.90
3678;DHT22;1855;50.934;6.958;2022-11-25T06:28:38;7.70;99.90
3678;DHT22;1855;50.934;6.958;2022-11-25T06:31:06;7.70;99.90
3678;DHT22;1855;50.934;6.958;2022-11-25T06:33:33;7.70;99.90
3678;DHT22;1855;50.934;6.958;2022-11-25T06:36:02;7.70;99.90
3678;DHT22;1855;50.934;6.958;2022-11-25T06:38:29;7.70;99.90
3678;DHT22;1855;50.934;6.958;2022-11-25T06:40:58;7.60;99.90
3678;DHT22;1855;50.934;6.958;2022-11-25T06:43:27;7.60;99.90
3678;DHT22;1855;50.934;6.958;2022-11-25T06:45:54;7.60;99.90
3678;DHT22;1855;50.934;6.958;2022-11-25T06:48:20;7.60;99.90
3678;DHT22;1855;50.934;6.958;2022-11-25T06:50:54;7.60;99.90
3678;DHT22;1855;50.934;6.958;2022-11-25T06:53:22;7.60;99.90
3678;DHT22;1855;50.934;6.958;2022-11-25T06:55:48;7.60;99.90
3678;DHT22;1855;50.934;6.958;2022-11-25T06:58:15;7.60;99.90
3678;DHT22;1855;50.934;6.958;2022-11-25T07:00:43;7.60;99.90
3678;DHT22;1855;50.934;6.958;2022-11-25T07:03:10;7.60;99.90
3678;DHT22;1855;50.934;6.958;2022-11-25T07:05:37;7.60;99.90
3678;DHT22;1855;50.934;6.958;2022-11-25T07:08:04;7.70;99.90
3678;DHT22;1855;50.934;6.958;2022-11-25T07:10:32;7.70;99.90
3678;DHT22;1855;50.934;6.958;2022-11-25T07:12:59;7.70;99.90
3678;DHT22;1855;50.934;6.958;2022-11-25T07:15:26;7.70;99.90
3678;DHT22;1855;50.934;6.958;2022-11-25T07:17:55;7.70;99.90
3678;DHT22;1855;50.934;6.958;2022-11-25T07:20:22;7.70;99.90
3678;DHT22;1855;50.934;6.958;2022-11-25T07:22:52;7.60;99.90
3678;DHT22;1855;50.934;6.958;2022-11-25T07:25:18;7.60;99.90
3678;DHT22;1855;50.934;6.958;2022-11-25T07:27:45;7.60;99.90
3678;DHT22;1855;50.934;6.958;2022-11-25T07:30:12;7.50;99.90
3678;DHT22;1855;50.934;6.958;2022-11-25T07:32:39;7.50;99.90
3678;DHT22;1855;50.934;6.958;2022-11-25T07:35:08;7.50;99.90
3678;DHT22;1855;50.934;6.958;2022-11-25T07:37:35;7.50;99.90
3678;DHT22;1855;50.934;6.958;2022-11-25T07:40:01;7.50;99.90
3678;DHT22;1855;50.934;6.958;2022-11-25T07:42:28;7.50;99.90
3678;DHT22;1855;50.934;6.958;2022-11-25T07:44:55;7.40;99.90
3678;DHT22;1855;50.934;6.958;2022-11-25T07:47:21;7.40;99.90
3678;DHT22;1855;50.934;6.958;2022-11-25T07:49:49;7.40;99.90
3678;DHT22;1855;50.934;6.958;2022-11-25T07:52:18;7.50;99.90
3678;DHT22;1855;50.934;6.958;2022-11-25T07:54:45;7.50;99.90
3678;DHT22;1855;50.934;6.958;2022-11-25T07:57:12;7.60;99.90
3678;DHT22;1855;50.934;6.958;2022-11-25T07:59:38;7.70;99.90
3678;DHT22;1855;50.934;6.958;2022-11-25T08:02:08;7.80;99.90
3678;DHT22;1855;50.934;6.958;2022-11-25T08:04:35;8.00;99.90
3678;DHT22;1855;50.934;6.958;2022-11-25T08:07:02;8.20;99.90
3678;DHT22;1855;50.934;6.958;2022-11-25T08:09:30;8.30;99.90
3678;DHT22;1855;50.934;6.958;2022-11-25T08:11:57;8.30;99.90
3678;DHT22;1855;50.934;6.958;2022-11-25T08:14:24;8.30;99.90
3678;DHT22;1855;50.934;6.958;2022-11-25T08:16:51;8.20;99.90
3678;DHT22;1855;50.934;6.958;2022-11-25T08:19:18;8.20;99.90
3678;DHT22;1855;50.934;6.958;2022-11-25T08:21:45;8.30;99.90
3678;DHT22;1855;50.934;6.958;2022-11-25T08:24:14;8.50;99.90
3678;DHT22;1855;50.934;6.958;2022-11-25T08:26:43;8.60;99.90
3678;DHT22;1855;50.934;6.958;2022-11-25T08:29:13;8.80;99.90
3678;DHT22;1855;50.934;6.958;2022-11-25T08:31:40;8.90;99.90
3678;DHT22;1855;50.934;6.958;2022-11-25T08:34:07;9.10;99.90
3678;DHT22;1855;50.934;6.958;2022-11-25T08:36:34;9.10;99.90
3678;DHT22;1855;50.934;6.958;2022-11-25T08:39:05;9.20;99.90
3678;DHT22;1855;50.934;6.958;2022-11-25T08:41:34;9.30;99.90
3678;DHT22;1855;50.934;6.958;2022-11-25T08:44:05;9.50;99.40
3678;DHT22;1855;50.934;6.958;2022-11-25T08:46:36;9.60;99.30
3678;DHT22;1855;50.934;6.958;2022-11-25T08:49:05;9.80;99.30
3678;DHT22;1855;50.934;6.958;2022-11-25T08:51:34;10.00;99.30
3678;DHT22;1855;50.934;6.958;2022-11-25T08:54:01;10.30;99.20
3678;DHT22;1855;50.934;6.958;2022-11-25T08:56:28;10.50;98.20
3678;DHT22;1855;50.934;6.958;2022-11-25T08:58:55;10.70;96.70
3678;DHT22;1855;50.934;6.958;2022-11-25T09:01:26;10.70;95.80
3678;DHT22;1855;50.934;6.958;2022-11-25T09:03:54;10.80;95.70
3678;DHT22;1855;50.934;6.958;2022-11-25T09:06:22;10.90;95.20
3678;DHT22;1855;50.934;6.958;2022-11-25T09:08:49;11.10;94.80
3678;DHT22;1855;50.934;6.958;2022-11-25T09:11:16;11.30;94.70
3678;DHT22;1855;50.934;6.958;2022-11-25T09:13:43;11.60;93.90
3678;DHT22;1855;50.934;6.958;2022-11-25T09:16:10;11.80;92.70
3678;DHT22;1855;50.934;6.958;2022-11-25T09:18:38;12.00;92.00
3678;DHT22;1855;50.934;6.958;2022-11-25T09:21:09;12.20;91.20
3678;DHT22;1855;50.934;6.958;2022-11-25T09:23:36;12.30;90.90
3678;DHT22;1855;50.934;6.958;2022-11-25T09:26:05;12.30;89.80
3678;DHT22;1855;50.934;6.958;2022-11-25T09:28:33;12.40;89.60
3678;DHT22;1855;50.934;6.958;2022-11-25T09:31:05;12.50;90.10
3678;DHT22;1855;50.934;6.958;2022-11-25T09:33:32;12.70;90.10
3678;DHT22;1855;50.934;6.958;2022-11-25T09:36:00;12.90;89.40
3678;DHT22;1855;50.934;6.958;2022-11-25T09:38:27;13.20;86.30
3678;DHT22;1855;50.934;6.958;2022-11-25T09:40:58;13.30;85.70
3678;DHT22;1855;50.934;6.958;2022-11-25T09:43:34;13.30;84.20
3678;DHT22;1855;50.934;6.958;2022-11-25T09:46:36;13.40;84.00
3678;DHT22;1855;50.934;6.958;2022-11-25T09:49:16;13.30;83.40
3678;DHT22;1855;50.934;6.958;2022-11-25T09:52:00;13.30;84.00
3678;DHT22;1855;50.934;6.958;2022-11-25T09:54:33;13.40;84.40
3678;DHT22;1855;50.934;6.958;2022-11-25T09:57:07;13.70;83.30
3678;DHT22;1855;50.934;6.958;2022-11-25T09:59:40;13.90;81.00
3678;DHT22;1855;50.934;6.958;2022-11-25T10:02:12;13.90;79.90
3678;DHT22;1855;50.934;6.958;2022-11-25T10:04:45;14.20;79.80
3678;DHT22;1855;50.934;6.958;2022-11-25T10:07:18;14.40;76.80
3678;DHT22;1855;50.934;6.958;2022-11-25T10:09:46;14.50;77.50
3678;DHT22;1855;50.934;6.958;2022-11-25T10:12:21;14.50;73.60
3678;DHT22;1855;50.934;6.958;2022-11-25T10:14:52;14.40;74.10
3678;DHT22;1855;50.934;6.958;2022-11-25T10:17:26;14.20;74.50
3678;DHT22;1855;50.934;6.958;2022-11-25T10:20:02;14.30;74.50
3678;DHT22;1855;50.934;6.958;2022-11-25T10:22:32;14.30;74.40
3678;DHT22;1855;50.934;6.958;2022-11-25T10:25:04;14.40;73.20
3678;DHT22;1855;50.934;6.958;2022-11-25T10:27:40;14.40;73.20
3678;DHT22;1855;50.934;6.958;2022-11-25T10:30:14;14.40;72.80
3678;DHT22;1855;50.934;6.958;2022-11-25T10:32:45;14.50;74.00
3678;DHT22;1855;50.934;6.958;2022-11-25T10:35:20;14.80;72.00
3678;DHT22;1855;50.934;6.958;2022-11-25T10:37:54;14.60;70.90
3678;DHT22;1855;50.934;6.958;2022-11-25T10:40:21;14.30;72.80
3678;DHT22;1855;50.934;6.958;2022-11-25T10:42:48;14.30;74.10
3678;DHT22;1855;50.934;6.958;2022-11-25T10:45:15;14.40;72.10
3678;DHT22;1855;50.934;6.958;2022-11-25T10:48:12;14.30;71.30
3678;DHT22;1855;50.934;6.958;2022-11-25T10:50:53;14.30;71.10
3678;DHT22;1855;50.934;6.958;2022-11-25T10:53:26;14.10;71.30
3678;DHT22;1855;50.934;6.958;2022-11-25T10:55:59;14.00;72.10
3678;DHT22;1855;50.934;6.958;2022-11-25T10:58:33;13.80;72.60
3678;DHT22;1855;50.934;6.958;2022-11-25T11:01:13;13.50;74.10
3678;DHT22;1855;50.934;6.958;2022-11-25T11:03:41;13.30;74.90
3678;DHT22;1855;50.934;6.958;2022-11-25T11:06:28;13.00;76.00
3678;DHT22;1855;50.934;6.958;2022-11-25T11:08:56;12.90;77.00
3678;DHT22;1855;50.934;6.958;2022-11-25T11:11:23;12.80;77.50
3678;DHT22;1855;50.934;6.958;2022-11-25T11:13:58;12.70;77.40
3678;DHT22;1855;50.934;6.958;2022-11-25T11:16:30;12.70;78.20
3678;DHT22;1855;50.934;6.958;2022-11-25T11:18:59;12.60;78.30
3678;DHT22;1855;50.934;6.958;2022-11-25T11:21:30;12.60;78.00
3678;DHT22;1855;50.934;6.958;2022-11-25T11:23:59;12.50;78.60
3678;DHT22;1855;50.934;6.958;2022-11-25T11:26:27;12.50;78.00
3678;DHT22;1855;50.934;6.958;2022-11-25T11:28:59;12.50;78.90
3678;DHT22;1855;50.934;6.958;2022-11-25T11:31:31;12.60;79.80
3678;DHT22;1855;50.934;6.958;2022-11-25T11:34:08;12.60;78.30
3678;DHT22;1855;50.934;6.958;2022-11-25T11:36:53;12.60;77.40
3678;DHT22;1855;50.934;6.958;2022-11-25T11:39:43;12.50;78.70
3678;DHT22;1855;50.934;6.958;2022-11-25T11:42:19;12.40;79.20
3678;DHT22;1855;50.934;6.958;2022-11-25T11:45:01;12.20;80.40
3678;DHT22;1855;50.934;6.958;2022-11-25T11:47:36;12.30;80.30
3678;DHT22;1855;50.934;6.958;2022-11-25T11:50:22;12.20;80.40
3678;DHT22;1855;50.934;6.958;2022-11-25T11:52:56;12.20;80.50
3678;DHT22;1855;50.934;6.958;2022-11-25T11:55:49;12.10;80.90
3678;DHT22;1855;50.934;6.958;2022-11-25T11:58:28;12.10;81.30
3678;DHT22;1855;50.934;6.958;2022-11-25T12:01:05;12.20;80.60
3678;DHT22;1855;50.934;6.958;2022-11-25T12:03:39;12.30;80.40
3678;DHT22;1855;50.934;6.958;2022-11-25T12:06:09;12.30;80.20
3678;DHT22;1855;50.934;6.958;2022-11-25T12:08:43;12.40;80.30
3678;DHT22;1855;50.934;6.958;2022-11-25T12:11:17;12.50;80.30
3678;DHT22;1855;50.934;6.958;2022-11-25T12:13:49;12.90;79.10
3678;DHT22;1855;50.934;6.958;2022-11-25T12:16:26;13.30;77.10
3678;DHT22;1855;50.934;6.958;2022-11-25T12:19:01;14.00;73.60
3678;DHT22;1855;50.934;6.958;2022-11-25T12:21:37;14.40;72.40
3678;DHT22;1855;50.934;6.958;2022-11-25T12:24:12;14.80;70.50
3678;DHT22;1855;50.934;6.958;2022-11-25T12:26:46;15.10;70.40
3678;DHT22;1855;50.934;6.958;2022-11-25T12:29:19;15.50;67.20
3678;DHT22;1855;50.934;6.958;2022-11-25T12:31:52;15.70;64.80
3678;DHT22;1855;50.934;6.958;2022-11-25T12:34:26;15.80;63.80
3678;DHT22;1855;50.934;6.958;2022-11-25T12:37:03;15.70;63.40
3678;DHT22;1855;50.934;6.958;2022-11-25T12:39:35;15.60;62.10
3678;DHT22;1855;50.934;6.958;2022-11-25T12:42:13;15.30;63.50
3678;DHT22;1855;50.934;6.958;2022-11-25T12:44:49;14.80;65.10
3678;DHT22;1855;50.934;6.958;2022-11-25T12:47:18;14.90;66.90
3678;DHT22;1855;50.934;6.958;2022-11-25T12:49:48;15.00;65.00
3678;DHT22;1855;50.934;6.958;2022-11-25T12:55:15;14.80;65.80
3678;DHT22;1855;50.934;6.958;2022-11-25T12:58:23;14.80;65.80
3678;DHT22;1855;50.934;6.958;2022-11-25T13:04:22;15.20;65.70
3678;DHT22;1855;50.934;6.958;2022-11-25T13:07:24;15.40;63.90
3678;DHT22;1855;50.934;6.958;2022-11-25T13:10:17;15.60;63.60
3678;DHT22;1855;50.934;6.958;2022-11-25T13:12:52;15.90;61.80
3678;DHT22;1855;50.934;6.958;2022-11-25T13:15:27;15.90;60.70
3678;DHT22;1855;50.934;6.958;2022-11-25T13:17:58;15.80;62.70
3678;DHT22;1855;50.934;6.958;2022-11-25T13:20:42;15.90;62.00
3678;DHT22;1855;50.934;6.958;2022-11-25T13:23:25;16.00;61.50
3678;DHT22;1855;50.934;6.958;2022-11-25T13:28:36;16.10;60.00
3678;DHT22;1855;50.934;6.958;2022-11-25T13:31:22;15.80;60.80
3678;DHT22;1855;50.934;6.958;2022-11-25T13:34:15;15.60;60.70
3678;DHT22;1855;50.934;6.958;2022-11-25T13:36:48;15.30;62.90
3678;DHT22;1855;50.934;6.958;2022-11-25T13:39:16;15.30;61.80
3678;DHT22;1855;50.934;6.958;2022-11-25T13:41:48;15.30;62.50
3678;DHT22;1855;50.934;6.958;2022-11-25T13:44:24;15.10;62.10
3678;DHT22;1855;50.934;6.958;2022-11-25T13:46:55;14.90;62.80
3678;DHT22;1855;50.934;6.958;2022-11-25T13:49:29;14.70;63.20
3678;DHT22;1855;50.934;6.958;2022-11-25T13:52:00;14.60;64.80
3678;DHT22;1855;50.934;6.958;2022-11-25T13:54:32;14.40;64.00
3678;DHT22;1855;50.934;6.958;2022-11-25T13:57:23;14.10;64.30
3678;DHT22;1855;50.934;6.958;2022-11-25T13:59:56;13.90;65.70
3678;DHT22;1855;50.934;6.958;2022-11-25T14:02:40;13.80;66.40
3678;DHT22;1855;50.934;6.958;2022-11-25T14:05:40;13.70;66.50
3678;DHT22;1855;50.934;6.958;2022-11-25T14:08:31;13.60;67.90
3678;DHT22;1855;50.934;6.958;2022-11-25T14:11:22;13.50;68.30
3678;DHT22;1855;50.934;6.958;2022-11-25T14:14:15;13.50;68.90
3678;DHT22;1855;50.934;6.958;2022-11-25T14:16:59;13.50;69.00
3678;DHT22;1855;50.934;6.958;2022-11-25T14:19:54;13.50;68.90
3678;DHT22;1855;50.934;6.958;2022-11-25T14:22:55;13.40;68.90
3678;DHT22;1855;50.934;6.958;2022-11-25T14:25:29;13.30;69.60
3678;DHT22;1855;50.934;6.958;2022-11-25T14:28:08;13.10;70.30
3678;DHT22;1855;50.934;6.958;2022-11-25T14:30:43;13.00;70.70
3678;DHT22;1855;50.934;6.958;2022-11-25T14:33:14;13.00;71.30
3678;DHT22;1855;50.934;6.958;2022-11-25T14:35:48;13.00;71.90
3678;DHT22;1855;50.934;6.958;2022-11-25T14:38:19;12.90;72.10
3678;DHT22;1855;50.934;6.958;2022-11-25T14:40:51;12.90;72.60
3678;DHT22;1855;50.934;6.958;2022-11-25T14:43:21;12.80;72.80
3678;DHT22;1855;50.934;6.958;2022-11-25T14:46:08;12.80;73.00
3678;DHT22;1855;50.934;6.958;2022-11-25T14:48:35;12.80;73.70
3678;DHT22;1855;50.934;6.958;2022-11-25T14:51:07;12.70;74.00
3678;DHT22;1855;50.934;6.958;2022-11-25T14:53:39;12.70;73.90
3678;DHT22;1855;50.934;6.958;2022-11-25T14:56:07;12.60;74.70
3678;DHT22;1855;50.934;6.958;2022-11-25T14:58:34;12.50;74.70
3678;DHT22;1855;50.934;6.958;2022-11-25T15:01:07;12.50;75.10
3678;DHT22;1855;50.934;6.958;2022-11-25T15:03:33;12.40;75.70
3678;DHT22;1855;50.934;6.958;2022-11-25T15:06:04;12.30;76.40
3678;DHT22;1855;50.934;6.958;2022-11-25T15:08:38;12.20;76.70
3678;DHT22;1855;50.934;6.958;2022-11-25T15:11:11;12.20;76.90
3678;DHT22;1855;50.934;6.958;2022-11-25T15:13:40;12.20;77.50
3678;DHT22;1855;50.934;6.958;2022-11-25T15:16:12;12.10;76.20
3678;DHT22;1855;50.934;6.958;2022-11-25T15:18:47;12.10;76.60
3678;DHT22;1855;50.934;6.958;2022-11-25T15:21:19;12.00;76.60
3678;DHT22;1855;50.934;6.958;2022-11-25T15:23:47;11.90;77.10
3678;DHT22;1855;50.934;6.958;2022-11-25T15:26:16;11.90;77.30
3678;DHT22;1855;50.934;6.958;2022-11-25T15:28:44;11.90;77.60
3678;DHT22;1855;50.934;6.958;2022-11-25T15:31:16;11.90;77.10
3678;DHT22;1855;50.934;6.958;2022-11-25T15:33:43;11.80;77.30
3678;DHT22;1855;50.934;6.958;2022-11-25T15:36:11;11.80;77.70
3678;DHT22;1855;50.934;6.958;2022-11-25T15:38:41;11.80;78.10
3678;DHT22;1855;50.934;6.958;2022-11-25T15:41:17;11.70;78.00
3678;DHT22;1855;50.934;6.958;2022-11-25T15:43:45;11.70;78.30
3678;DHT22;1855;50.934;6.958;2022-11-25T15:46:13;11.70;78.40
3678;DHT22;1855;50.934;6.958;2022-11-25T15:48:42;11.60;78.70
3678;DHT22;1855;50.934;6.958;2022-11-25T15:51:25;11.60;78.70
3678;DHT22;1855;50.934;6.958;2022-11-25T15:53:59;11.50;79.20
3678;DHT22;1855;50.934;6.958;2022-11-25T15:56:27;11.50;79.70
3678;DHT22;1855;50.934;6.958;2022-11-25T15:58:54;11.40;80.00
3678;DHT22;1855;50.934;6.958;2022-11-25T16:01:22;11.40;79.80
3678;DHT22;1855;50.934;6.958;2022-11-25T16:03:49;11.40;80.10
3678;DHT22;1855;50.934;6.958;2022-11-25T16:06:21;11.40;80.30
3678;DHT22;1855;50.934;6.958;2022-11-25T16:08:52;11.40;80.40
3678;DHT22;1855;50.934;6.958;2022-11-25T16:11:22;11.30;80.50
3678;DHT22;1855;50.934;6.958;2022-11-25T16:13:50;11.30;80.50
3678;DHT22;1855;50.934;6.958;2022-11-25T16:16:22;11.30;80.70
3678;DHT22;1855;50.934;6.958;2022-11-25T16:19:09;11.20;81.00
3678;DHT22;1855;50.934;6.958;2022-11-25T16:21:41;11.20;80.90
3678;DHT22;1855;50.934;6.958;2022-11-25T16:24:25;11.20;81.10
3678;DHT22;1855;50.934;6.958;2022-11-25T16:26:55;11.20;82.60
3678;DHT22;1855;50.934;6.958;2022-11-25T16:29:27;11.20;82.10
3678;DHT22;1855;50.934;6.958;2022-11-25T16:31:55;11.20;81.70
3678;DHT22;1855;50.934;6.958;2022-11-25T16:34:22;11.20;81.70
3678;DHT22;1855;50.934;6.958;2022-11-25T16:36:50;11.30;81.70
3678;DHT22;1855;50.934;6.958;2022-11-25T16:39:17;11.20;81.70
3678;DHT22;1855;50.934;6.958;2022-11-25T16:41:54;11.20;82.50
3678;DHT22;1855;50.934;6.958;2022-11-25T16:44:23;11.20;82.50